Terminal Aerodrome Forecast
Issued by NWS Lake Charles, LA

Home | Current Version | Previous Version | Text Only | Print | Product List | Glossary On
Versions: 1 2 3 4 5 6 7 8 9 10 11 12 13 14 15 16
717
FTUS44 KLCH 161724
TAFLFT
TAF
KLFT 161724Z 1618/1718 17013G18KT P6SM BKN025
     FM170000 16006KT P6SM BKN015
     FM170900 17005KT 5SM BR VCSH OVC007
     FM171500 18008KT P6SM VCSH OVC015=

USA.gov is the U.S. government's official web portal to all federal, state and local government web resources and services.